Pagina principale
METAR-TAF:

METAR-TAF

Aeroporti :

Aeroporto di Gioia del Colle

Gioia del Colle, Italia

latitudine: 40-46N, longitudine: 016-56E, altezza: 345 m

Osservazione

Il bollettino è stato emesso 37 minuti fa, alle 15:55 UTC
Vento 11 kt da sud
Temperature 23°C
Umidità 65%
Pressione 1014 hPa
Visibilità 10 km o più
nessuna nube inferiore a 1500 m e nessun cumulonembo

METAR: LIBV 151555Z 17011KT CAVOK 23/16 Q1014 RMK BKN BKN200 VIS MIN 9999 WIND THR32 18010KT WIND THR14 17010KT BLU

Ora: 18:32 (16:32 UTC)

Previsione

Il bollettino è stato emesso 2 ore e 32 minuti fa, alle 14:00 UTC
Previsione valida dal 15 alle 15 UTC al 16 alle 00 UTC
Vento 15 kt da sud/sud-est
Visibilità 10 km o più
nessuna nube inferiore a 1500 m e nessun cumulonembo
Evoluzione graduale
dal 15 alle 17 UTC al 15 alle 19 UTC
Vento 10 kt da sud/sud-est

TAF: LIBV 151400Z 1515/1600 16015KT CAVOK BECMG 1517/1519 16010KT

Osservazioni e previsioni meteorologiche di più di 4000 aeroporti (messaggi METAR e TAF).

Le stazioni disponibili sono rappresentate dai dischi gialli e rossi sulla carta.

Puntare il mouse per vedere il nome della stazione.

Clicca sopra per visualizzare le osservazioni e previsioni meteorologiche.

Per cambiare la mappa : fare clic sui pulsanti verdi con una croce nera per ingrandire, il pulsante verde con un trattino per diminuire, o sulla freccia verde per le mappe adiacenti.


METAR-TAF: